Time;durP1;ratioP1;P1;durP2;ratioP2;P2;SDS_P1;SDS_P2;PMS_P1;PMS_P2;Temp;Humidity;BMP_temperature;BMP_pressure;BME280_temperature;BME280_humidity;BME280_pressure;Samples;Min_cycle;Max_cycle;Signal;HPM_P1;HPM_P2
2022/08/31 00:05:50;;;;;;;4.28;1.10;;;;;;;;;;5050191;28;20049;-74
2022/08/31 00:08:16;;;;;;;2.25;1.20;;;;;;;;;;5049896;28;20033;-75
2022/08/31 00:10:45;;;;;;;3.35;1.23;;;;;;;;;;5033231;28;20037;-74
2022/08/31 00:13:11;;;;;;;2.13;0.90;;;;;;;;;;5033404;28;20041;-74
2022/08/31 00:15:37;;;;;;;2.85;1.02;;;;;;;;;;5050461;28;20493;-74
2022/08/31 00:18:04;;;;;;;3.10;0.88;;;;;;;;;;5050144;28;20045;-74
2022/08/31 00:20:30;;;;;;;1.80;0.88;;;;;;;;;;5049477;28;20059;-74
2022/08/31 00:22:56;;;;;;;2.22;0.82;;;;;;;;;;5050228;28;20498;-74
2022/08/31 00:25:23;;;;;;;3.10;1.20;;;;;;;;;;5049776;28;20091;-74
2022/08/31 00:27:49;;;;;;;2.20;1.05;;;;;;;;;;5050501;28;20508;-74
2022/08/31 00:30:15;;;;;;;3.38;1.02;;;;;;;;;;5049324;28;20044;-74
2022/08/31 00:32:41;;;;;;;2.05;0.90;;;;;;;;;;5050611;28;20040;-74
2022/08/31 00:35:08;;;;;;;2.63;1.00;;;;;;;;;;5049773;28;20044;-74
2022/08/31 00:37:34;;;;;;;2.50;0.80;;;;;;;;;;5049688;28;20084;-74
2022/08/31 00:40:00;;;;;;;3.25;0.95;;;;;;;;;;5033758;28;20493;-74
2022/08/31 00:42:26;;;;;;;2.40;0.93;;;;;;;;;;5049831;28;20067;-74
2022/08/31 00:44:53;;;;;;;1.38;0.75;;;;;;;;;;5052683;28;20041;-74
2022/08/31 00:47:19;;;;;;;4.57;1.10;;;;;;;;;;5036771;28;20075;-74
2022/08/31 00:49:49;;;;;;;2.72;1.13;;;;;;;;;;5053726;28;20076;-74
2022/08/31 00:52:26;;;;;;;6.07;1.27;;;;;;;;;;5052393;28;20053;-74
2022/08/31 00:54:56;;;;;;;4.22;1.10;;;;;;;;;;5037046;28;20131;-74
2022/08/31 00:57:23;;;;;;;3.17;1.02;;;;;;;;;;5052980;28;20041;-74
2022/08/31 00:59:50;;;;;;;2.53;1.20;;;;;;;;;;5053265;28;20052;-74
2022/08/31 01:02:17;;;;;;;3.38;1.23;;;;;;;;;;5065070;28;20077;-74
2022/08/31 01:04:44;;;;;;;2.97;1.00;;;;;;;;;;5036873;28;20041;-76
2022/08/31 01:07:10;;;;;;;2.70;1.20;;;;;;;;;;5052638;28;20120;-75
2022/08/31 01:09:39;;;;;;;2.03;0.98;;;;;;;;;;5053676;28;20519;-74
2022/08/31 01:12:05;;;;;;;2.45;1.00;;;;;;;;;;5053541;28;20048;-75
2022/08/31 01:14:31;;;;;;;4.53;1.20;;;;;;;;;;5052457;28;20052;-75
2022/08/31 01:16:57;;;;;;;2.35;1.20;;;;;;;;;;5037113;28;20512;-75
2022/08/31 01:19:29;;;;;;;3.60;1.10;;;;;;;;;;5052954;28;20502;-75
2022/08/31 01:22:06;;;;;;;3.60;1.20;;;;;;;;;;5052882;28;20044;-75
2022/08/31 01:24:33;;;;;;;3.13;1.10;;;;;;;;;;5052343;28;20059;-75
2022/08/31 01:27:02;;;;;;;3.08;1.13;;;;;;;;;;5053151;28;20040;-75
2022/08/31 01:29:29;;;;;;;2.95;1.10;;;;;;;;;;5035828;28;20494;-75
2022/08/31 01:31:55;;;;;;;6.25;1.60;;;;;;;;;;5054344;28;20059;-75
2022/08/31 01:34:21;;;;;;;3.17;1.20;;;;;;;;;;5052555;28;20393;-75
2022/08/31 01:36:48;;;;;;;2.92;1.00;;;;;;;;;;5036146;28;20123;-75
2022/08/31 01:39:14;;;;;;;3.47;1.15;;;;;;;;;;5036204;28;20442;-75
2022/08/31 01:41:42;;;;;;;3.35;1.20;;;;;;;;;;5052776;28;20045;-75
2022/08/31 01:44:10;;;;;;;2.08;1.10;;;;;;;;;;5035826;28;20091;-75
2022/08/31 01:46:36;;;;;;;3.83;1.30;;;;;;;;;;5052477;28;20041;-75
2022/08/31 01:49:02;;;;;;;2.58;1.40;;;;;;;;;;5052696;28;20048;-75
2022/08/31 01:51:28;;;;;;;2.55;1.30;;;;;;;;;;5051945;28;20057;-75
2022/08/31 01:53:55;;;;;;;2.63;1.33;;;;;;;;;;5035943;28;20095;-75
2022/08/31 01:56:23;;;;;;;2.92;1.27;;;;;;;;;;5051057;28;20084;-75
2022/08/31 01:58:50;;;;;;;2.28;1.40;;;;;;;;;;5052358;28;20045;-75
2022/08/31 02:01:16;;;;;;;2.53;1.50;;;;;;;;;;5051552;28;20080;-75
2022/08/31 02:03:42;;;;;;;2.78;1.70;;;;;;;;;;5052114;28;20041;-75
2022/08/31 02:06:09;;;;;;;3.17;1.40;;;;;;;;;;5043731;28;20053;-76
2022/08/31 02:08:36;;;;;;;2.78;1.50;;;;;;;;;;5051002;28;20072;-76
2022/08/31 02:11:02;;;;;;;2.78;1.60;;;;;;;;;;5039544;28;20543;-75
2022/08/31 02:13:28;;;;;;;2.42;1.50;;;;;;;;;;5047096;28;20045;-75
2022/08/31 02:15:54;;;;;;;2.35;1.60;;;;;;;;;;5043416;28;20041;-76
2022/08/31 02:18:20;;;;;;;4.57;1.77;;;;;;;;;;5044414;28;20048;-75
2022/08/31 02:20:46;;;;;;;3.05;1.70;;;;;;;;;;5041930;28;20073;-76
2022/08/31 02:23:12;;;;;;;4.63;1.63;;;;;;;;;;5040334;28;20095;-75
2022/08/31 02:25:38;;;;;;;2.75;1.60;;;;;;;;;;5043381;28;20049;-76
2022/08/31 02:28:04;;;;;;;3.08;1.80;;;;;;;;;;5047952;28;20064;-75
2022/08/31 02:30:30;;;;;;;2.58;1.60;;;;;;;;;;5034001;28;20045;-75
2022/08/31 02:32:57;;;;;;;3.17;1.52;;;;;;;;;;5048216;28;20044;-73
2022/08/31 02:35:23;;;;;;;2.50;1.52;;;;;;;;;;5040947;28;20045;-75
2022/08/31 02:37:49;;;;;;;3.75;1.50;;;;;;;;;;5043659;28;20059;-75
2022/08/31 02:40:15;;;;;;;3.85;1.50;;;;;;;;;;5037533;28;20084;-75
2022/08/31 02:42:41;;;;;;;3.03;1.42;;;;;;;;;;5050793;28;20049;-75
2022/08/31 02:45:08;;;;;;;3.05;1.70;;;;;;;;;;5051692;28;20052;-75
2022/08/31 02:47:34;;;;;;;3.42;1.42;;;;;;;;;;5050629;28;20091;-75
2022/08/31 02:50:04;;;;;;;3.50;1.30;;;;;;;;;;5056745;28;20049;-75
2022/08/31 02:52:30;;;;;;;2.95;1.25;;;;;;;;;;5034910;28;20509;-75
2022/08/31 02:54:56;;;;;;;2.28;1.30;;;;;;;;;;5051242;28;20048;-75
2022/08/31 02:57:22;;;;;;;2.58;1.23;;;;;;;;;;5050905;28;20037;-75
2022/08/31 02:59:49;;;;;;;4.20;1.15;;;;;;;;;;5051072;28;20481;-76
2022/08/31 03:02:16;;;;;;;2.67;1.30;;;;;;;;;;5068113;28;20505;-75
2022/08/31 03:04:42;;;;;;;2.95;1.20;;;;;;;;;;5046315;28;20077;-75
2022/08/31 03:07:08;;;;;;;4.78;1.40;;;;;;;;;;5030977;28;20045;-75
2022/08/31 03:09:34;;;;;;;2.45;1.23;;;;;;;;;;5045045;28;20041;-74
2022/08/31 03:12:01;;;;;;;3.58;1.25;;;;;;;;;;5034508;28;20098;-74
2022/08/31 03:14:27;;;;;;;2.30;0.98;;;;;;;;;;5034293;28;20049;-75
2022/08/31 03:16:53;;;;;;;4.07;1.20;;;;;;;;;;5051378;28;20469;-76
2022/08/31 03:19:20;;;;;;;4.38;1.13;;;;;;;;;;5034046;28;20111;-75
2022/08/31 03:21:46;;;;;;;2.35;1.02;;;;;;;;;;5050762;28;20048;-75
2022/08/31 03:24:16;;;;;;;2.00;1.10;;;;;;;;;;5050753;28;20048;-76
2022/08/31 03:26:43;;;;;;;1.88;0.90;;;;;;;;;;5050726;28;20048;-75
2022/08/31 03:29:09;;;;;;;3.63;1.08;;;;;;;;;;5050916;28;20119;-75
2022/08/31 03:31:35;;;;;;;3.03;0.80;;;;;;;;;;5050735;28;20055;-75
2022/08/31 03:34:01;;;;;;;2.35;0.90;;;;;;;;;;5050738;28;20045;-75
2022/08/31 03:36:27;;;;;;;2.60;1.00;;;;;;;;;;5050407;28;20052;-75
2022/08/31 03:38:54;;;;;;;2.78;0.80;;;;;;;;;;5045324;28;20498;-75
2022/08/31 03:41:21;;;;;;;2.53;0.90;;;;;;;;;;5037416;28;20122;-75
2022/08/31 03:43:47;;;;;;;1.77;0.90;;;;;;;;;;5036133;28;20041;-75
2022/08/31 03:46:14;;;;;;;1.83;0.90;;;;;;;;;;5051129;28;20393;-75
2022/08/31 03:48:40;;;;;;;1.52;0.80;;;;;;;;;;5033763;28;20115;-74
2022/08/31 03:51:06;;;;;;;1.70;0.75;;;;;;;;;;5050342;28;20053;-74
2022/08/31 03:53:34;;;;;;;1.77;0.80;;;;;;;;;;5050436;28;20075;-75
2022/08/31 03:56:02;;;;;;;3.40;0.93;;;;;;;;;;5033728;28;20048;-75
2022/08/31 03:58:29;;;;;;;1.92;0.80;;;;;;;;;;5050604;28;20063;-75
2022/08/31 04:00:55;;;;;;;2.75;1.10;;;;;;;;;;5049669;28;20090;-75
2022/08/31 04:03:22;;;;;;;2.58;0.90;;;;;;;;;;5050291;28;20121;-75
2022/08/31 04:05:48;;;;;;;1.45;0.80;;;;;;;;;;5032726;28;20043;-75
2022/08/31 04:08:15;;;;;;;2.42;0.95;;;;;;;;;;5044840;28;20043;-75
2022/08/31 04:10:42;;;;;;;2.60;0.90;;;;;;;;;;5043843;28;20071;-75
2022/08/31 04:13:09;;;;;;;1.80;1.02;;;;;;;;;;5033681;28;20049;-75
2022/08/31 04:15:36;;;;;;;3.30;1.10;;;;;;;;;;5042897;28;20041;-75
2022/08/31 04:18:02;;;;;;;1.67;0.95;;;;;;;;;;5040844;28;20081;-75
2022/08/31 04:20:28;;;;;;;1.80;0.98;;;;;;;;;;5061836;28;20127;-75
2022/08/31 04:22:54;;;;;;;1.98;1.00;;;;;;;;;;5037153;28;20494;-75
2022/08/31 04:25:20;;;;;;;2.35;1.00;;;;;;;;;;5046925;28;20029;-75
2022/08/31 04:27:49;;;;;;;1.85;1.10;;;;;;;;;;5047512;28;20052;-75
2022/08/31 04:30:15;;;;;;;2.15;0.90;;;;;;;;;;5050463;28;20072;-74
2022/08/31 04:32:41;;;;;;;1.40;0.80;;;;;;;;;;5046324;28;20080;-75
2022/08/31 04:35:07;;;;;;;1.80;1.13;;;;;;;;;;5054168;28;20040;-74
2022/08/31 04:37:33;;;;;;;2.45;1.20;;;;;;;;;;5051637;28;20048;-75
2022/08/31 04:40:00;;;;;;;3.90;1.23;;;;;;;;;;5041650;28;20130;-74
2022/08/31 04:42:28;;;;;;;2.28;1.08;;;;;;;;;;5042676;28;20029;-74
2022/08/31 04:44:55;;;;;;;2.88;1.10;;;;;;;;;;5052856;28;20051;-74
2022/08/31 04:47:21;;;;;;;2.38;1.08;;;;;;;;;;5053674;28;20079;-74
2022/08/31 04:49:47;;;;;;;2.25;1.20;;;;;;;;;;5052164;28;20087;-74
2022/08/31 04:52:13;;;;;;;1.90;1.20;;;;;;;;;;5047584;28;20133;-74
2022/08/31 04:54:39;;;;;;;2.63;1.20;;;;;;;;;;5016295;28;20081;-74
2022/08/31 04:57:06;;;;;;;3.38;1.10;;;;;;;;;;5046082;28;20114;-75
2022/08/31 04:59:32;;;;;;;4.20;1.20;;;;;;;;;;5042253;28;20505;-74
2022/08/31 05:01:58;;;;;;;2.00;1.05;;;;;;;;;;5052032;28;20136;-75
2022/08/31 05:04:24;;;;;;;2.63;1.15;;;;;;;;;;5033451;28;20056;-75
2022/08/31 05:06:51;;;;;;;4.30;1.10;;;;;;;;;;5049094;28;20041;-74
2022/08/31 05:09:18;;;;;;;3.40;1.00;;;;;;;;;;5052604;28;20033;-74
2022/08/31 05:11:45;;;;;;;2.35;1.08;;;;;;;;;;5052621;28;20076;-75
2022/08/31 05:14:11;;;;;;;4.20;1.48;;;;;;;;;;5019622;28;20049;-75
2022/08/31 05:16:38;;;;;;;3.42;1.15;;;;;;;;;;5032942;28;20049;-75
2022/08/31 05:19:04;;;;;;;2.00;1.05;;;;;;;;;;5034231;28;20375;-74
2022/08/31 05:21:35;;;;;;;2.20;1.02;;;;;;;;;;5050730;28;20128;-75
2022/08/31 05:24:03;;;;;;;3.25;1.00;;;;;;;;;;5052083;28;20045;-75
2022/08/31 05:26:31;;;;;;;2.55;0.85;;;;;;;;;;5033078;28;20410;-75
2022/08/31 05:28:58;;;;;;;2.30;1.13;;;;;;;;;;5045414;28;20040;-75
2022/08/31 05:31:28;;;;;;;2.58;1.00;;;;;;;;;;5034046;28;20394;-75
2022/08/31 05:33:55;;;;;;;2.80;0.98;;;;;;;;;;5040008;28;20120;-75
2022/08/31 05:36:22;;;;;;;2.45;1.15;;;;;;;;;;5043156;28;20038;-75
2022/08/31 05:38:48;;;;;;;3.30;0.93;;;;;;;;;;5046802;28;20044;-75
2022/08/31 05:41:14;;;;;;;2.85;0.90;;;;;;;;;;5027864;28;20154;-75
2022/08/31 05:43:40;;;;;;;1.58;0.85;;;;;;;;;;5035048;28;20033;-75
2022/08/31 05:46:07;;;;;;;2.13;1.00;;;;;;;;;;5052872;28;20497;-75
2022/08/31 05:48:35;;;;;;;1.70;0.82;;;;;;;;;;5052540;28;20440;-76
2022/08/31 05:51:02;;;;;;;1.60;0.82;;;;;;;;;;5052004;28;20482;-75
2022/08/31 05:53:28;;;;;;;1.48;0.70;;;;;;;;;;5035646;28;20061;-75
2022/08/31 05:56:05;;;;;;;4.20;0.93;;;;;;;;;;5035332;28;20045;-76
2022/08/31 05:58:32;;;;;;;2.35;0.80;;;;;;;;;;5035916;28;20098;-75
2022/08/31 06:00:58;;;;;;;1.65;0.90;;;;;;;;;;5053123;28;20108;-75
2022/08/31 06:03:24;;;;;;;2.13;0.73;;;;;;;;;;5017144;28;20405;-75
2022/08/31 06:05:51;;;;;;;2.50;0.90;;;;;;;;;;5051837;28;20116;-75
2022/08/31 06:08:17;;;;;;;1.77;0.70;;;;;;;;;;5052527;28;20116;-75
2022/08/31 06:10:43;;;;;;;1.88;0.73;;;;;;;;;;5035799;28;20041;-75
2022/08/31 06:13:12;;;;;;;2.28;0.80;;;;;;;;;;5052406;28;20048;-76
2022/08/31 06:15:38;;;;;;;1.33;0.70;;;;;;;;;;5052162;28;20490;-76
2022/08/31 06:18:06;;;;;;;1.10;0.60;;;;;;;;;;5051917;28;20486;-75
2022/08/31 06:20:35;;;;;;;3.63;1.40;;;;;;;;;;5034966;28;20128;-75
2022/08/31 06:23:02;;;;;;;7.55;1.10;;;;;;;;;;5050875;28;20830;-75
2022/08/31 06:25:28;;;;;;;6.32;1.00;;;;;;;;;;5051055;28;20394;-75
2022/08/31 06:27:55;;;;;;;2.20;0.80;;;;;;;;;;5050532;28;20124;-75
2022/08/31 06:30:25;;;;;;;1.75;0.70;;;;;;;;;;5051309;28;20088;-76
2022/08/31 06:32:54;;;;;;;2.30;0.60;;;;;;;;;;5050833;28;20119;-75
2022/08/31 06:35:21;;;;;;;2.17;0.90;;;;;;;;;;5050451;28;20126;-75
2022/08/31 06:37:47;;;;;;;2.63;0.70;;;;;;;;;;5051070;28;20048;-76
2022/08/31 06:40:14;;;;;;;2.13;0.90;;;;;;;;;;5035100;28;20037;-76
2022/08/31 06:42:40;;;;;;;2.30;0.80;;;;;;;;;;5034320;28;20076;-75
2022/08/31 06:45:06;;;;;;;2.53;0.80;;;;;;;;;;5034292;28;20037;-76
2022/08/31 06:47:32;;;;;;;3.38;1.00;;;;;;;;;;5047876;28;20041;-76
2022/08/31 06:49:58;;;;;;;2.13;0.90;;;;;;;;;;5041771;28;20033;-76
2022/08/31 06:52:25;;;;;;;2.00;0.77;;;;;;;;;;5053569;28;20124;-77
2022/08/31 06:54:52;;;;;;;1.40;0.70;;;;;;;;;;5050930;28;20045;-76
2022/08/31 06:57:18;;;;;;;4.25;0.70;;;;;;;;;;5049527;28;20068;-77
2022/08/31 06:59:44;;;;;;;4.22;0.70;;;;;;;;;;5066926;28;20504;-77
2022/08/31 07:02:10;;;;;;;4.05;0.70;;;;;;;;;;5044291;28;20037;-76
2022/08/31 07:04:38;;;;;;;3.67;0.80;;;;;;;;;;5043962;28;20041;-76
2022/08/31 07:07:05;;;;;;;3.17;1.05;;;;;;;;;;5027242;28;20090;-76
2022/08/31 07:09:31;;;;;;;4.43;0.80;;;;;;;;;;5051573;28;20052;-77
2022/08/31 07:11:57;;;;;;;3.00;0.70;;;;;;;;;;5050870;28;20128;-77
2022/08/31 07:14:24;;;;;;;3.75;0.90;;;;;;;;;;5048871;28;20044;-76
2022/08/31 07:16:52;;;;;;;1.58;0.77;;;;;;;;;;5049307;28;20170;-76
2022/08/31 07:19:19;;;;;;;1.80;0.70;;;;;;;;;;5048817;28;20125;-77
2022/08/31 07:21:55;;;;;;;2.50;0.90;;;;;;;;;;5050293;28;20400;-77
2022/08/31 07:24:24;;;;;;;2.58;0.80;;;;;;;;;;5049702;28;20131;-76
2022/08/31 07:26:58;;;;;;;2.33;0.60;;;;;;;;;;5049492;28;20126;-77
2022/08/31 07:29:26;;;;;;;3.05;0.70;;;;;;;;;;5049971;28;20037;-77
2022/08/31 07:31:54;;;;;;;2.53;0.80;;;;;;;;;;5049567;28;20509;-76
2022/08/31 07:34:24;;;;;;;2.88;0.85;;;;;;;;;;5049947;28;20611;-76
2022/08/31 07:42:27;;;;;;;3.77;0.90;;;;;;;;;;5052260;28;20041;-78
2022/08/31 07:44:55;;;;;;;2.40;0.60;;;;;;;;;;5025969;28;20326;-78
2022/08/31 07:47:21;;;;;;;3.58;0.80;;;;;;;;;;5035999;28;20041;-78
2022/08/31 07:49:50;;;;;;;2.80;0.70;;;;;;;;;;5033851;28;20060;-78
2022/08/31 07:52:27;;;;;;;3.38;0.70;;;;;;;;;;5033614;28;20398;-78
2022/08/31 07:54:55;;;;;;;3.25;0.90;;;;;;;;;;5053346;28;20056;-78
2022/08/31 07:57:24;;;;;;;4.47;0.70;;;;;;;;;;5038265;28;20551;-78
2022/08/31 08:00:05;;;;;;;1.98;0.60;;;;;;;;;;5054317;28;20049;-77
2022/08/31 08:02:37;;;;;;;2.47;0.80;;;;;;;;;;5037985;28;20099;-77
2022/08/31 08:05:05;;;;;;;3.42;0.45;;;;;;;;;;5038462;28;20120;-81
2022/08/31 08:07:32;;;;;;;1.67;0.50;;;;;;;;;;5055141;28;20513;-79
2022/08/31 08:09:59;;;;;;;3.97;0.50;;;;;;;;;;5054194;28;20048;-78
2022/08/31 08:12:26;;;;;;;2.28;0.65;;;;;;;;;;5054244;28;20041;-79
2022/08/31 08:14:56;;;;;;;1.67;0.60;;;;;;;;;;5054716;28;20060;-78
2022/08/31 08:17:22;;;;;;;2.58;0.57;;;;;;;;;;5053660;28;20040;-78
2022/08/31 08:19:48;;;;;;;1.92;0.63;;;;;;;;;;5054813;28;20044;-77
2022/08/31 08:22:14;;;;;;;1.40;0.43;;;;;;;;;;5037506;28;20299;-78
2022/08/31 08:24:41;;;;;;;1.67;0.60;;;;;;;;;;5054249;28;20080;-78
2022/08/31 08:27:07;;;;;;;1.38;0.50;;;;;;;;;;5053800;28;20045;-78
2022/08/31 08:29:33;;;;;;;3.80;0.70;;;;;;;;;;5037695;28;20044;-78
2022/08/31 08:31:59;;;;;;;3.88;0.60;;;;;;;;;;5053320;28;20036;-78
2022/08/31 08:34:25;;;;;;;3.72;0.80;;;;;;;;;;5038009;28;20390;-79
2022/08/31 08:36:51;;;;;;;3.05;0.70;;;;;;;;;;5053707;28;20040;-78
2022/08/31 08:39:18;;;;;;;2.13;0.60;;;;;;;;;;5043955;28;20056;-77
2022/08/31 08:41:45;;;;;;;2.10;0.70;;;;;;;;;;5049300;28;20048;-78
2022/08/31 08:44:12;;;;;;;2.65;0.70;;;;;;;;;;5036674;28;20048;-78
2022/08/31 08:46:45;;;;;;;5.50;0.60;;;;;;;;;;5053374;28;20045;-78
2022/08/31 08:49:23;;;;;;;1.70;0.68;;;;;;;;;;5052671;28;20045;-78
2022/08/31 08:51:51;;;;;;;2.38;0.70;;;;;;;;;;5053121;28;20088;-78
2022/08/31 08:54:25;;;;;;;2.35;0.50;;;;;;;;;;5052648;28;20049;-78
2022/08/31 08:56:51;;;;;;;2.95;0.60;;;;;;;;;;5053306;28;20045;-78
2022/08/31 08:59:18;;;;;;;5.82;0.73;;;;;;;;;;5053085;28;20585;-78
2022/08/31 09:01:45;;;;;;;4.85;0.70;;;;;;;;;;5052999;28;20068;-78
2022/08/31 09:04:30;;;;;;;5.70;0.80;;;;;;;;;;5052171;28;20055;-78
2022/08/31 09:07:06;;;;;;;1.80;0.60;;;;;;;;;;5037094;28;20501;-78
2022/08/31 09:09:45;;;;;;;3.55;0.50;;;;;;;;;;5053255;28;20045;-78
2022/08/31 09:12:19;;;;;;;3.28;0.55;;;;;;;;;;5053299;28;20064;-78
2022/08/31 09:14:48;;;;;;;2.78;0.55;;;;;;;;;;5036614;28;20056;-78
2022/08/31 09:17:33;;;;;;;2.75;0.50;;;;;;;;;;5069354;28;20041;-78
2022/08/31 09:20:00;;;;;;;1.85;0.60;;;;;;;;;;5053429;28;20508;-78
2022/08/31 09:22:31;;;;;;;3.15;0.65;;;;;;;;;;5053155;28;20045;-78
2022/08/31 09:25:02;;;;;;;3.45;0.55;;;;;;;;;;5053198;28;20415;-78
2022/08/31 09:27:56;;;;;;;2.78;0.70;;;;;;;;;;5053175;28;20037;-77
2022/08/31 09:30:38;;;;;;;4.95;0.70;;;;;;;;;;5052404;28;20064;-78
2022/08/31 09:33:04;;;;;;;2.13;0.50;;;;;;;;;;5035738;28;20044;-78
2022/08/31 09:35:39;;;;;;;4.75;0.65;;;;;;;;;;5052902;28;20041;-78
2022/08/31 09:38:10;;;;;;;5.10;0.68;;;;;;;;;;5050600;28;20057;-78
2022/08/31 09:40:39;;;;;;;3.47;0.63;;;;;;;;;;5017257;28;20489;-78
2022/08/31 09:43:08;;;;;;;6.47;0.68;;;;;;;;;;5044931;28;20045;-76
2022/08/31 09:45:35;;;;;;;6.80;0.70;;;;;;;;;;5052339;28;20048;-78
2022/08/31 09:48:05;;;;;;;2.65;0.50;;;;;;;;;;5052600;28;20549;-79
2022/08/31 09:50:45;;;;;;;2.38;0.60;;;;;;;;;;5035669;28;20047;-78
2022/08/31 09:56:14;;;;;;;1.50;0.70;;;;;;;;;;5038335;28;20132;-78
2022/08/31 09:58:51;;;;;;;1.65;0.50;;;;;;;;;;5042569;28;20098;-77
2022/08/31 10:01:37;;;;;;;5.68;0.60;;;;;;;;;;5038136;28;20048;-78
2022/08/31 10:04:25;;;;;;;1.83;0.65;;;;;;;;;;5051696;28;20045;-78
2022/08/31 10:06:55;;;;;;;3.47;0.65;;;;;;;;;;5039894;28;20128;-78
2022/08/31 10:09:25;;;;;;;1.52;0.50;;;;;;;;;;5033414;28;20045;-78
2022/08/31 10:11:53;;;;;;;3.85;0.70;;;;;;;;;;5033253;28;20045;-77
2022/08/31 10:14:25;;;;;;;1.15;0.50;;;;;;;;;;5048397;28;20041;-79
2022/08/31 10:16:55;;;;;;;3.35;0.68;;;;;;;;;;5041317;28;20041;-78
2022/08/31 10:19:29;;;;;;;5.00;0.70;;;;;;;;;;5047497;28;20041;-78
2022/08/31 10:22:10;;;;;;;1.42;0.50;;;;;;;;;;5045710;28;20086;-77
2022/08/31 10:24:57;;;;;;;2.67;0.50;;;;;;;;;;5032311;28;20045;-77
2022/08/31 10:27:37;;;;;;;3.88;0.50;;;;;;;;;;5049746;28;20037;-76
2022/08/31 10:30:09;;;;;;;1.38;0.52;;;;;;;;;;5034201;28;20060;-77
2022/08/31 10:32:38;;;;;;;2.13;0.73;;;;;;;;;;5032439;28;20041;-77
2022/08/31 10:35:08;;;;;;;1.80;0.50;;;;;;;;;;5032989;28;20955;-77
2022/08/31 10:37:35;;;;;;;4.78;0.50;;;;;;;;;;5042195;28;20379;-78
2022/08/31 10:40:09;;;;;;;3.08;1.23;;;;;;;;;;5054066;28;20103;-78
2022/08/31 10:42:37;;;;;;;1.58;0.40;;;;;;;;;;5042904;28;20410;-77
2022/08/31 10:45:15;;;;;;;2.88;0.95;;;;;;;;;;5046723;28;20049;-77
2022/08/31 10:47:47;;;;;;;1.90;0.60;;;;;;;;;;5046602;28;20045;-77
2022/08/31 10:50:15;;;;;;;2.42;0.50;;;;;;;;;;5052401;28;20041;-77
2022/08/31 10:52:50;;;;;;;1.45;0.60;;;;;;;;;;5049997;28;20049;-78
2022/08/31 10:55:32;;;;;;;2.38;0.52;;;;;;;;;;5035786;28;20410;-77
2022/08/31 10:58:03;;;;;;;5.03;0.70;;;;;;;;;;5033710;28;20048;-77
2022/08/31 11:00:40;;;;;;;2.35;0.50;;;;;;;;;;5045883;28;20693;-78
2022/08/31 11:03:19;;;;;;;1.83;0.60;;;;;;;;;;5043220;28;20049;-78
2022/08/31 11:05:45;;;;;;;2.45;0.55;;;;;;;;;;5045476;28;20041;-77
2022/08/31 11:08:26;;;;;;;5.55;0.80;;;;;;;;;;5037043;28;20558;-77
2022/08/31 11:10:53;;;;;;;2.55;0.60;;;;;;;;;;5033999;28;20029;-76
2022/08/31 11:13:26;;;;;;;1.20;0.50;;;;;;;;;;5033385;28;20041;-77
2022/08/31 11:16:16;;;;;;;0.90;0.40;;;;;;;;;;5043618;28;20094;-77
2022/08/31 11:18:49;;;;;;;1.38;0.45;;;;;;;;;;5022110;28;20098;-78
2022/08/31 11:21:35;;;;;;;2.55;0.60;;;;;;;;;;5042623;28;20063;-77
2022/08/31 11:24:04;;;;;;;8.40;0.70;;;;;;;;;;5033839;28;20049;-77
2022/08/31 11:26:30;;;;;;;6.93;0.60;;;;;;;;;;5039943;28;20037;-78
2022/08/31 11:29:09;;;;;;;1.70;0.55;;;;;;;;;;5047382;28;20041;-77
2022/08/31 11:31:37;;;;;;;1.73;0.60;;;;;;;;;;5039230;28;20393;-78
2022/08/31 11:34:15;;;;;;;1.77;0.60;;;;;;;;;;5046838;28;20053;-77
2022/08/31 11:36:49;;;;;;;1.70;0.50;;;;;;;;;;5036171;28;20549;-76
2022/08/31 11:39:15;;;;;;;2.13;0.60;;;;;;;;;;5043492;28;20060;-77
2022/08/31 11:41:48;;;;;;;1.83;0.50;;;;;;;;;;5051986;28;20046;-77
2022/08/31 11:44:29;;;;;;;0.98;0.57;;;;;;;;;;5045563;28;20037;-77
2022/08/31 11:47:04;;;;;;;1.33;0.65;;;;;;;;;;5033886;28;20163;-77
2022/08/31 11:49:50;;;;;;;1.90;0.52;;;;;;;;;;5049941;28;20474;-77
2022/08/31 11:52:23;;;;;;;1.35;0.55;;;;;;;;;;5049788;28;20494;-77
2022/08/31 11:54:51;;;;;;;5.63;0.65;;;;;;;;;;5033673;28;20098;-77
2022/08/31 11:57:23;;;;;;;7.40;0.60;;;;;;;;;;5050088;28;20401;-77
2022/08/31 11:59:51;;;;;;;3.38;0.50;;;;;;;;;;5050753;28;20044;-77
2022/08/31 12:02:21;;;;;;;3.20;0.68;;;;;;;;;;5049282;28;20033;-77
2022/08/31 12:04:56;;;;;;;0.98;0.50;;;;;;;;;;5049638;28;20052;-77
2022/08/31 12:07:31;;;;;;;2.28;0.60;;;;;;;;;;5047439;28;20043;-77
2022/08/31 12:10:03;;;;;;;2.22;0.60;;;;;;;;;;5034581;28;20037;-77
2022/08/31 12:12:29;;;;;;;1.42;0.68;;;;;;;;;;5050054;28;20094;-77
2022/08/31 12:15:03;;;;;;;2.35;0.50;;;;;;;;;;5050477;28;20497;-77
2022/08/31 12:17:29;;;;;;;2.78;0.50;;;;;;;;;;5048585;28;20045;-77
2022/08/31 12:20:05;;;;;;;2.08;0.47;;;;;;;;;;5033345;28;20493;-77
2022/08/31 12:25:40;;;;;;;5.05;0.60;;;;;;;;;;5057524;28;20138;-77
2022/08/31 12:28:11;;;;;;;2.55;0.50;;;;;;;;;;5062706;28;20037;-77
2022/08/31 12:30:47;;;;;;;3.22;0.60;;;;;;;;;;5041879;28;21327;-77
2022/08/31 12:33:16;;;;;;;6.18;1.23;;;;;;;;;;5048985;28;20045;-77
2022/08/31 12:35:45;;;;;;;1.50;0.50;;;;;;;;;;5044461;28;20040;-75
2022/08/31 12:38:17;;;;;;;2.47;0.65;;;;;;;;;;5045493;28;20045;-76
2022/08/31 12:40:44;;;;;;;2.15;0.45;;;;;;;;;;5050181;28;20078;-77
2022/08/31 12:43:21;;;;;;;7.50;0.70;;;;;;;;;;5037165;28;20106;-77
2022/08/31 12:46:06;;;;;;;2.22;0.65;;;;;;;;;;5050295;28;20066;-77
2022/08/31 12:48:43;;;;;;;3.30;0.60;;;;;;;;;;5053426;28;20072;-77
2022/08/31 12:51:17;;;;;;;1.73;0.50;;;;;;;;;;5053195;28;20287;-77
2022/08/31 12:53:48;;;;;;;2.28;0.43;;;;;;;;;;5053868;28;20049;-77
2022/08/31 12:56:24;;;;;;;1.08;0.55;;;;;;;;;;5053553;28;20045;-77
2022/08/31 12:59:10;;;;;;;2.08;0.60;;;;;;;;;;5053790;28;20041;-77
2022/08/31 13:01:41;;;;;;;1.27;0.60;;;;;;;;;;5049461;28;20037;-77
2022/08/31 13:04:07;;;;;;;2.22;0.50;;;;;;;;;;5065751;28;20535;-77
2022/08/31 13:06:36;;;;;;;5.10;0.50;;;;;;;;;;5052764;28;20504;-77
2022/08/31 13:09:03;;;;;;;2.53;0.50;;;;;;;;;;5053017;28;20120;-77
2022/08/31 13:11:31;;;;;;;2.38;0.60;;;;;;;;;;5052739;28;20033;-77
2022/08/31 13:14:08;;;;;;;1.23;0.52;;;;;;;;;;5052710;28;20033;-77
2022/08/31 13:16:34;;;;;;;4.10;0.60;;;;;;;;;;5052017;28;20413;-77
2022/08/31 13:19:02;;;;;;;1.17;0.52;;;;;;;;;;5052867;28;20432;-76
2022/08/31 13:21:28;;;;;;;2.22;0.50;;;;;;;;;;5051931;28;20123;-77
2022/08/31 13:24:06;;;;;;;1.23;0.50;;;;;;;;;;5053039;28;20478;-77
2022/08/31 13:26:34;;;;;;;1.52;0.50;;;;;;;;;;5052844;28;20474;-77
2022/08/31 13:29:02;;;;;;;1.88;0.40;;;;;;;;;;5024464;28;20048;-76
2022/08/31 13:31:30;;;;;;;3.65;0.60;;;;;;;;;;5052401;28;20097;-77
2022/08/31 13:34:01;;;;;;;2.80;0.60;;;;;;;;;;5044907;28;20060;-77
2022/08/31 13:36:39;;;;;;;2.35;0.60;;;;;;;;;;5050839;28;20048;-76
2022/08/31 13:39:12;;;;;;;1.30;0.50;;;;;;;;;;5053008;28;20041;-76
2022/08/31 13:41:41;;;;;;;3.63;0.55;;;;;;;;;;5052401;28;20037;-77
2022/08/31 13:44:09;;;;;;;2.33;0.70;;;;;;;;;;5034619;28;20041;-78
2022/08/31 13:46:37;;;;;;;1.40;0.50;;;;;;;;;;5052177;28;20127;-76
2022/08/31 13:49:04;;;;;;;1.75;0.57;;;;;;;;;;5045921;28;20390;-77
2022/08/31 13:51:33;;;;;;;2.03;0.60;;;;;;;;;;5050605;28;20060;-77
2022/08/31 13:53:59;;;;;;;3.47;0.52;;;;;;;;;;5035740;28;20072;-77
2022/08/31 13:59:21;;;;;;;3.00;0.60;;;;;;;;;;5068714;28;20041;-77
2022/08/31 14:01:53;;;;;;;2.10;0.65;;;;;;;;;;5052389;28;20394;-77
2022/08/31 14:05:02;;;;;;;1.95;0.50;;;;;;;;;;5052671;28;20040;-77
2022/08/31 14:07:28;;;;;;;2.67;0.70;;;;;;;;;;5035034;28;20076;-76
2022/08/31 14:09:57;;;;;;;1.00;0.50;;;;;;;;;;5052267;28;20037;-75
2022/08/31 14:12:34;;;;;;;0.82;0.52;;;;;;;;;;5051872;28;20033;-75
2022/08/31 14:15:07;;;;;;;2.53;0.70;;;;;;;;;;5035820;28;20041;-81
2022/08/31 14:17:34;;;;;;;0.85;0.40;;;;;;;;;;5051595;28;20049;-79
2022/08/31 14:20:19;;;;;;;2.15;0.60;;;;;;;;;;5035156;28;20041;-82
2022/08/31 14:22:48;;;;;;;1.53;0.60;;;;;;;;;;5050754;28;20040;-78
2022/08/31 14:25:20;;;;;;;1.35;0.50;;;;;;;;;;5051201;28;20291;-77
2022/08/31 14:27:47;;;;;;;1.15;0.55;;;;;;;;;;5051454;28;20041;-78
2022/08/31 14:30:13;;;;;;;1.77;0.50;;;;;;;;;;5051550;28;20032;-78
2022/08/31 14:32:44;;;;;;;4.00;0.60;;;;;;;;;;5051351;28;20032;-77
2022/08/31 14:35:11;;;;;;;1.20;0.60;;;;;;;;;;5052166;28;20390;-78
2022/08/31 14:37:42;;;;;;;1.10;0.47;;;;;;;;;;5050815;28;20052;-78
2022/08/31 14:40:09;;;;;;;1.85;0.50;;;;;;;;;;5035266;28;20509;-78
2022/08/31 14:42:37;;;;;;;1.67;0.50;;;;;;;;;;5050770;28;20048;-78
2022/08/31 14:45:17;;;;;;;2.30;0.85;;;;;;;;;;5051131;28;20445;-78
2022/08/31 14:47:43;;;;;;;2.80;0.70;;;;;;;;;;5050967;28;20052;-78
2022/08/31 14:50:11;;;;;;;2.95;0.50;;;;;;;;;;5051256;28;20044;-78
2022/08/31 14:52:40;;;;;;;4.88;0.57;;;;;;;;;;5033761;28;20068;-78
2022/08/31 14:55:09;;;;;;;1.33;0.70;;;;;;;;;;5045277;28;20128;-78
2022/08/31 14:57:37;;;;;;;2.20;0.60;;;;;;;;;;5021273;28;20144;-78
2022/08/31 15:00:04;;;;;;;2.78;0.60;;;;;;;;;;5050551;28;20123;-78
2022/08/31 15:02:32;;;;;;;1.13;0.50;;;;;;;;;;5048609;28;20044;-77
2022/08/31 15:05:03;;;;;;;2.90;0.77;;;;;;;;;;5055987;28;20115;-77
2022/08/31 15:07:30;;;;;;;4.57;0.50;;;;;;;;;;5002262;28;20541;-77
2022/08/31 15:09:57;;;;;;;2.33;0.50;;;;;;;;;;5041220;28;20041;-76
2022/08/31 15:12:24;;;;;;;1.38;0.70;;;;;;;;;;5042917;28;20405;-77
2022/08/31 15:14:58;;;;;;;1.65;0.60;;;;;;;;;;5044648;28;20117;-77